sensor_id;sensor_type;location;lat;lon;timestamp;pressure;altitude;pressure_sealevel;temperature;humidity
43071;BME280;36278;47.952;21.714;2023-04-08T00:02:19;100668.88;;;3.39;100.00
43071;BME280;36278;47.952;21.714;2023-04-08T00:04:44;100665.16;;;3.45;100.00
43071;BME280;36278;47.952;21.714;2023-04-08T00:07:10;100679.16;;;3.44;100.00
43071;BME280;36278;47.952;21.714;2023-04-08T00:09:35;100668.47;;;3.48;100.00
43071;BME280;36278;47.952;21.714;2023-04-08T00:12:01;100665.94;;;3.47;100.00
43071;BME280;36278;47.952;21.714;2023-04-08T00:14:26;100668.56;;;3.47;100.00
43071;BME280;36278;47.952;21.714;2023-04-08T00:16:52;100671.91;;;3.50;100.00
43071;BME280;36278;47.952;21.714;2023-04-08T00:19:17;100667.53;;;3.51;100.00
43071;BME280;36278;47.952;21.714;2023-04-08T00:21:44;100662.41;;;3.48;100.00
43071;BME280;36278;47.952;21.714;2023-04-08T00:24:09;100667.63;;;3.48;100.00
43071;BME280;36278;47.952;21.714;2023-04-08T00:26:35;100659.84;;;3.46;100.00
43071;BME280;36278;47.952;21.714;2023-04-08T00:29:01;100669.59;;;3.43;100.00
43071;BME280;36278;47.952;21.714;2023-04-08T00:31:27;100657.69;;;3.35;100.00
43071;BME280;36278;47.952;21.714;2023-04-08T00:33:52;100664.69;;;3.35;100.00
43071;BME280;36278;47.952;21.714;2023-04-08T00:36:18;100667.41;;;3.32;100.00
43071;BME280;36278;47.952;21.714;2023-04-08T00:38:44;100662.47;;;3.24;100.00
43071;BME280;36278;47.952;21.714;2023-04-08T00:41:09;100667.72;;;3.24;100.00
43071;BME280;36278;47.952;21.714;2023-04-08T00:43:35;100665.91;;;3.26;100.00
43071;BME280;36278;47.952;21.714;2023-04-08T00:46:00;100671.19;;;3.25;100.00
43071;BME280;36278;47.952;21.714;2023-04-08T00:48:26;100661.69;;;3.22;100.00
43071;BME280;36278;47.952;21.714;2023-04-08T00:50:51;100667.00;;;3.21;100.00
43071;BME280;36278;47.952;21.714;2023-04-08T00:53:18;100665.28;;;3.20;100.00
43071;BME280;36278;47.952;21.714;2023-04-08T00:55:44;100653.34;;;3.13;100.00
43071;BME280;36278;47.952;21.714;2023-04-08T00:58:10;100665.47;;;3.15;100.00
43071;BME280;36278;47.952;21.714;2023-04-08T01:00:41;100667.53;;;3.07;100.00
43071;BME280;36278;47.952;21.714;2023-04-08T01:03:43;100675.59;;;3.01;100.00
43071;BME280;36278;47.952;21.714;2023-04-08T01:06:21;100671.13;;;3.04;100.00
43071;BME280;36278;47.952;21.714;2023-04-08T01:08:51;100671.13;;;3.04;100.00
43071;BME280;36278;47.952;21.714;2023-04-08T01:11:17;100678.28;;;2.99;100.00
43071;BME280;36278;47.952;21.714;2023-04-08T01:13:45;100686.28;;;2.96;100.00
43071;BME280;36278;47.952;21.714;2023-04-08T01:16:14;100675.00;;;2.94;100.00
43071;BME280;36278;47.952;21.714;2023-04-08T01:18:42;100681.31;;;2.89;100.00
43071;BME280;36278;47.952;21.714;2023-04-08T01:21:10;100667.75;;;2.79;100.00
43071;BME280;36278;47.952;21.714;2023-04-08T01:26:58;100677.28;;;2.80;100.00
43071;BME280;36278;47.952;21.714;2023-04-08T01:29:26;100674.81;;;2.77;100.00
43071;BME280;36278;47.952;21.714;2023-04-08T01:31:54;100674.13;;;2.72;100.00
43071;BME280;36278;47.952;21.714;2023-04-08T01:34:21;100679.56;;;2.66;100.00
43071;BME280;36278;47.952;21.714;2023-04-08T01:36:48;100677.75;;;2.68;100.00
43071;BME280;36278;47.952;21.714;2023-04-08T01:39:15;100681.13;;;2.71;100.00
43071;BME280;36278;47.952;21.714;2023-04-08T01:41:42;100683.88;;;2.67;100.00
43071;BME280;36278;47.952;21.714;2023-04-08T01:44:10;100678.00;;;2.62;100.00
43071;BME280;36278;47.952;21.714;2023-04-08T01:46:38;100685.00;;;2.61;100.00
43071;BME280;36278;47.952;21.714;2023-04-08T01:49:05;100682.31;;;2.63;100.00
43071;BME280;36278;47.952;21.714;2023-04-08T01:51:32;100684.75;;;2.67;100.00
43071;BME280;36278;47.952;21.714;2023-04-08T01:53:58;100677.44;;;2.53;100.00
43071;BME280;36278;47.952;21.714;2023-04-08T01:56:28;100686.19;;;2.52;100.00
43071;BME280;36278;47.952;21.714;2023-04-08T01:58:57;100680.19;;;2.49;100.00
43071;BME280;36278;47.952;21.714;2023-04-08T02:01:26;100682.13;;;2.44;100.00
43071;BME280;36278;47.952;21.714;2023-04-08T02:03:54;100674.38;;;2.41;100.00
43071;BME280;36278;47.952;21.714;2023-04-08T02:06:22;100688.22;;;2.44;100.00
43071;BME280;36278;47.952;21.714;2023-04-08T02:08:48;100677.72;;;2.46;100.00
43071;BME280;36278;47.952;21.714;2023-04-08T02:11:13;100681.25;;;2.43;100.00
43071;BME280;36278;47.952;21.714;2023-04-08T02:13:39;100680.47;;;2.41;100.00
43071;BME280;36278;47.952;21.714;2023-04-08T02:18:35;100680.25;;;2.47;100.00
43071;BME280;36278;47.952;21.714;2023-04-08T02:21:12;100683.66;;;2.49;100.00
43071;BME280;36278;47.952;21.714;2023-04-08T02:23:39;100676.72;;;2.48;100.00
43071;BME280;36278;47.952;21.714;2023-04-08T02:26:12;100663.78;;;2.45;100.00
43071;BME280;36278;47.952;21.714;2023-04-08T02:28:39;100675.75;;;2.51;100.00
43071;BME280;36278;47.952;21.714;2023-04-08T02:31:09;100677.53;;;2.50;100.00
43071;BME280;36278;47.952;21.714;2023-04-08T02:33:38;100679.19;;;2.53;100.00
43071;BME280;36278;47.952;21.714;2023-04-08T02:36:04;100672.91;;;2.57;100.00
43071;BME280;36278;47.952;21.714;2023-04-08T02:38:30;100678.09;;;2.59;100.00
43071;BME280;36278;47.952;21.714;2023-04-08T02:40:56;100682.38;;;2.61;100.00
43071;BME280;36278;47.952;21.714;2023-04-08T02:43:23;100679.78;;;2.60;100.00
43071;BME280;36278;47.952;21.714;2023-04-08T02:45:56;100679.69;;;2.63;100.00
43071;BME280;36278;47.952;21.714;2023-04-08T02:48:22;100676.72;;;2.72;100.00
43071;BME280;36278;47.952;21.714;2023-04-08T02:50:47;100667.91;;;2.74;100.00
43071;BME280;36278;47.952;21.714;2023-04-08T02:53:12;100675.75;;;2.74;100.00
43071;BME280;36278;47.952;21.714;2023-04-08T02:55:38;100675.75;;;2.74;100.00
43071;BME280;36278;47.952;21.714;2023-04-08T02:58:04;100677.53;;;2.74;100.00
43071;BME280;36278;47.952;21.714;2023-04-08T03:00:30;100680.19;;;2.72;100.00
43071;BME280;36278;47.952;21.714;2023-04-08T03:02:55;100677.28;;;2.80;100.00
43071;BME280;36278;47.952;21.714;2023-04-08T03:05:21;100682.41;;;2.83;100.00
43071;BME280;36278;47.952;21.714;2023-04-08T03:07:46;100674.69;;;2.80;100.00
43071;BME280;36278;47.952;21.714;2023-04-08T03:10:12;100674.50;;;2.85;100.00
43071;BME280;36278;47.952;21.714;2023-04-08T03:12:37;100663.38;;;2.79;100.00
43071;BME280;36278;47.952;21.714;2023-04-08T03:15:03;100690.19;;;2.85;100.00
43071;BME280;36278;47.952;21.714;2023-04-08T03:17:29;100683.31;;;2.82;100.00
43071;BME280;36278;47.952;21.714;2023-04-08T03:19:56;100685.88;;;2.84;100.00
43071;BME280;36278;47.952;21.714;2023-04-08T03:22:22;100697.38;;;2.79;100.00
43071;BME280;36278;47.952;21.714;2023-04-08T03:24:48;100688.75;;;2.77;100.00
43071;BME280;36278;47.952;21.714;2023-04-08T03:27:14;100696.34;;;2.84;100.00
43071;BME280;36278;47.952;21.714;2023-04-08T03:29:39;100691.38;;;2.76;100.00
43071;BME280;36278;47.952;21.714;2023-04-08T03:32:05;100701.69;;;2.80;100.00
43071;BME280;36278;47.952;21.714;2023-04-08T03:34:35;100703.47;;;2.80;100.00
43071;BME280;36278;47.952;21.714;2023-04-08T03:37:01;100699.25;;;2.76;100.00
43071;BME280;36278;47.952;21.714;2023-04-08T03:39:26;100710.53;;;2.78;100.00
43071;BME280;36278;47.952;21.714;2023-04-08T03:41:52;100707.94;;;2.76;100.00
43071;BME280;36278;47.952;21.714;2023-04-08T03:44:17;100708.06;;;2.73;100.00
43071;BME280;36278;47.952;21.714;2023-04-08T03:46:42;100716.09;;;2.69;100.00
43071;BME280;36278;47.952;21.714;2023-04-08T03:49:08;100713.34;;;2.72;100.00
43071;BME280;36278;47.952;21.714;2023-04-08T03:51:33;100713.47;;;2.69;100.00
43071;BME280;36278;47.952;21.714;2023-04-08T03:53:59;100708.91;;;2.74;100.00
43071;BME280;36278;47.952;21.714;2023-04-08T03:56:24;100710.53;;;2.78;100.00
43071;BME280;36278;47.952;21.714;2023-04-08T03:58:50;100727.00;;;2.80;100.00
43071;BME280;36278;47.952;21.714;2023-04-08T04:01:16;100718.72;;;2.69;100.00
43071;BME280;36278;47.952;21.714;2023-04-08T04:03:41;100724.09;;;2.64;100.00
43071;BME280;36278;47.952;21.714;2023-04-08T04:06:07;100734.56;;;2.64;100.00
43071;BME280;36278;47.952;21.714;2023-04-08T04:08:32;100736.19;;;2.67;100.00
43071;BME280;36278;47.952;21.714;2023-04-08T04:10:58;100741.38;;;2.68;100.00
43071;BME280;36278;47.952;21.714;2023-04-08T04:13:24;100737.97;;;2.66;100.00
43071;BME280;36278;47.952;21.714;2023-04-08T04:15:49;100738.72;;;2.70;100.00
43071;BME280;36278;47.952;21.714;2023-04-08T04:18:15;100732.78;;;2.65;100.00
43071;BME280;36278;47.952;21.714;2023-04-08T04:20:41;100743.13;;;2.68;100.00
43071;BME280;36278;47.952;21.714;2023-04-08T04:23:07;100745.09;;;2.63;100.00
43071;BME280;36278;47.952;21.714;2023-04-08T04:25:32;100740.00;;;2.58;100.00
43071;BME280;36278;47.952;21.714;2023-04-08T04:27:58;100741.81;;;2.56;100.00
43071;BME280;36278;47.952;21.714;2023-04-08T04:30:24;100740.97;;;2.56;100.00
43071;BME280;36278;47.952;21.714;2023-04-08T04:32:50;100750.13;;;2.67;100.00
43071;BME280;36278;47.952;21.714;2023-04-08T04:35:15;100747.56;;;2.66;100.00
43071;BME280;36278;47.952;21.714;2023-04-08T04:37:41;100754.44;;;2.68;100.00
43071;BME280;36278;47.952;21.714;2023-04-08T04:40:07;100759.09;;;2.60;100.00
43071;BME280;36278;47.952;21.714;2023-04-08T04:42:33;100747.38;;;2.72;100.00
43071;BME280;36278;47.952;21.714;2023-04-08T04:44:58;100752.41;;;2.76;100.00
43071;BME280;36278;47.952;21.714;2023-04-08T04:47:24;100760.69;;;2.89;100.00
43071;BME280;36278;47.952;21.714;2023-04-08T04:49:50;100750.28;;;2.88;100.00
43071;BME280;36278;47.952;21.714;2023-04-08T04:52:16;100763.94;;;2.96;100.00
43071;BME280;36278;47.952;21.714;2023-04-08T04:54:41;100757.78;;;2.97;100.00
43071;BME280;36278;47.952;21.714;2023-04-08T04:57:07;100755.72;;;3.05;100.00
43071;BME280;36278;47.952;21.714;2023-04-08T04:59:32;100765.91;;;3.13;100.00
43071;BME280;36278;47.952;21.714;2023-04-08T05:01:58;100750.19;;;3.13;100.00
43071;BME280;36278;47.952;21.714;2023-04-08T05:04:24;100770.50;;;3.06;100.00
43071;BME280;36278;47.952;21.714;2023-04-08T05:06:50;100766.06;;;3.08;100.00
43071;BME280;36278;47.952;21.714;2023-04-08T05:09:15;100769.59;;;3.07;100.00
43071;BME280;36278;47.952;21.714;2023-04-08T05:11:41;100772.00;;;3.13;100.00
43071;BME280;36278;47.952;21.714;2023-04-08T05:14:06;100767.75;;;3.11;100.00
43071;BME280;36278;47.952;21.714;2023-04-08T05:16:32;100768.25;;;3.20;100.00
43071;BME280;36278;47.952;21.714;2023-04-08T05:18:58;100767.31;;;3.21;100.00
43071;BME280;36278;47.952;21.714;2023-04-08T05:21:23;100771.63;;;3.22;100.00
43071;BME280;36278;47.952;21.714;2023-04-08T05:23:49;100777.72;;;3.23;100.00
43071;BME280;36278;47.952;21.714;2023-04-08T05:26:20;100783.81;;;3.23;100.00
43071;BME280;36278;47.952;21.714;2023-04-08T05:28:46;100788.09;;;3.26;100.00
43071;BME280;36278;47.952;21.714;2023-04-08T05:31:15;100777.56;;;3.27;100.00
43071;BME280;36278;47.952;21.714;2023-04-08T05:33:40;100775.91;;;3.25;100.00
43071;BME280;36278;47.952;21.714;2023-04-08T05:36:06;100794.69;;;3.36;100.00
43071;BME280;36278;47.952;21.714;2023-04-08T05:38:31;100788.88;;;3.28;100.00
43071;BME280;36278;47.952;21.714;2023-04-08T05:40:57;100795.13;;;3.24;100.00
43071;BME280;36278;47.952;21.714;2023-04-08T05:43:22;100799.22;;;3.31;100.00
43071;BME280;36278;47.952;21.714;2023-04-08T05:45:48;100801.78;;;3.32;100.00
43071;BME280;36278;47.952;21.714;2023-04-08T05:48:13;100793.09;;;3.32;100.00
43071;BME280;36278;47.952;21.714;2023-04-08T05:50:38;100794.69;;;3.36;100.00
43071;BME280;36278;47.952;21.714;2023-04-08T05:53:04;100792.06;;;3.36;100.00
43071;BME280;36278;47.952;21.714;2023-04-08T05:55:30;100799.84;;;3.37;100.00
43071;BME280;36278;47.952;21.714;2023-04-08T05:57:55;100797.97;;;3.41;100.00
43071;BME280;36278;47.952;21.714;2023-04-08T06:00:20;100800.28;;;3.49;100.00
43071;BME280;36278;47.952;21.714;2023-04-08T06:02:47;100798.03;;;3.40;100.00
43071;BME280;36278;47.952;21.714;2023-04-08T06:05:12;100804.13;;;3.40;100.00
43071;BME280;36278;47.952;21.714;2023-04-08T06:07:38;100811.59;;;3.51;100.00
43071;BME280;36278;47.952;21.714;2023-04-08T06:10:03;100802.81;;;3.52;100.00
43071;BME280;36278;47.952;21.714;2023-04-08T06:12:34;100808.22;;;3.47;100.00
43071;BME280;36278;47.952;21.714;2023-04-08T06:14:59;100811.97;;;3.40;100.00
43071;BME280;36278;47.952;21.714;2023-04-08T06:17:25;100805.88;;;3.40;100.00
43071;BME280;36278;47.952;21.714;2023-04-08T06:19:50;100808.84;;;3.30;100.00
43071;BME280;36278;47.952;21.714;2023-04-08T06:22:16;100813.03;;;3.36;100.00
43071;BME280;36278;47.952;21.714;2023-04-08T06:24:41;100806.56;;;3.45;100.00
43071;BME280;36278;47.952;21.714;2023-04-08T06:27:07;100819.03;;;3.61;100.00
43071;BME280;36278;47.952;21.714;2023-04-08T06:29:32;100817.94;;;3.67;100.00
43071;BME280;36278;47.952;21.714;2023-04-08T06:31:58;100804.84;;;3.67;100.00
43071;BME280;36278;47.952;21.714;2023-04-08T06:34:23;100809.50;;;3.81;100.00
43071;BME280;36278;47.952;21.714;2023-04-08T06:36:49;100814.22;;;3.94;100.00
43071;BME280;36278;47.952;21.714;2023-04-08T06:39:14;100818.69;;;4.13;100.00
43071;BME280;36278;47.952;21.714;2023-04-08T06:41:41;100814.06;;;4.19;99.56
43071;BME280;36278;47.952;21.714;2023-04-08T06:44:06;100820.00;;;4.23;98.34
43071;BME280;36278;47.952;21.714;2023-04-08T06:46:32;100818.44;;;4.19;99.46
43071;BME280;36278;47.952;21.714;2023-04-08T06:48:57;100814.19;;;4.16;99.21
43071;BME280;36278;47.952;21.714;2023-04-08T06:51:23;100821.47;;;4.30;99.84
43071;BME280;36278;47.952;21.714;2023-04-08T06:53:48;100815.25;;;4.53;98.98
43071;BME280;36278;47.952;21.714;2023-04-08T06:56:14;100818.84;;;4.30;99.68
43071;BME280;36278;47.952;21.714;2023-04-08T06:58:39;100817.16;;;4.49;99.43
43071;BME280;36278;47.952;21.714;2023-04-08T07:01:05;100818.16;;;4.67;98.60
43071;BME280;36278;47.952;21.714;2023-04-08T07:03:30;100814.59;;;4.68;96.59
43071;BME280;36278;47.952;21.714;2023-04-08T07:05:56;100813.34;;;4.97;96.91
43071;BME280;36278;47.952;21.714;2023-04-08T07:08:21;100821.31;;;5.15;95.66
43071;BME280;36278;47.952;21.714;2023-04-08T07:10:47;100821.81;;;5.23;94.19
43071;BME280;36278;47.952;21.714;2023-04-08T07:13:13;100830.31;;;5.28;95.43
43071;BME280;36278;47.952;21.714;2023-04-08T07:15:39;100811.81;;;5.31;92.16
43071;BME280;36278;47.952;21.714;2023-04-08T07:18:05;100824.00;;;5.32;92.17
43071;BME280;36278;47.952;21.714;2023-04-08T07:20:31;100823.28;;;5.28;92.57
43071;BME280;36278;47.952;21.714;2023-04-08T07:22:56;100831.47;;;5.41;92.33
43071;BME280;36278;47.952;21.714;2023-04-08T07:25:22;100827.91;;;5.42;93.88
43071;BME280;36278;47.952;21.714;2023-04-08T07:27:47;100827.47;;;5.51;91.47
43071;BME280;36278;47.952;21.714;2023-04-08T07:30:12;100829.75;;;5.59;92.88
43071;BME280;36278;47.952;21.714;2023-04-08T07:32:38;100833.97;;;5.63;92.29
43071;BME280;36278;47.952;21.714;2023-04-08T07:35:04;100837.69;;;5.76;91.93
43071;BME280;36278;47.952;21.714;2023-04-08T07:37:29;100839.06;;;6.04;91.75
43071;BME280;36278;47.952;21.714;2023-04-08T07:39:55;100845.72;;;5.92;90.32
43071;BME280;36278;47.952;21.714;2023-04-08T07:42:20;100839.53;;;5.93;90.46
43071;BME280;36278;47.952;21.714;2023-04-08T07:44:46;100844.94;;;6.26;88.51
43071;BME280;36278;47.952;21.714;2023-04-08T07:47:11;100848.22;;;6.31;88.63
43071;BME280;36278;47.952;21.714;2023-04-08T07:49:37;100851.09;;;6.44;90.05
43071;BME280;36278;47.952;21.714;2023-04-08T07:52:03;100849.78;;;6.53;91.08
43071;BME280;36278;47.952;21.714;2023-04-08T07:54:32;100852.16;;;6.57;87.60
43071;BME280;36278;47.952;21.714;2023-04-08T07:57:00;100845.34;;;6.70;87.50
43071;BME280;36278;47.952;21.714;2023-04-08T07:59:27;100852.94;;;6.59;89.21
43071;BME280;36278;47.952;21.714;2023-04-08T08:01:53;100845.91;;;6.60;88.87
43071;BME280;36278;47.952;21.714;2023-04-08T08:04:19;100850.63;;;6.70;88.92
43071;BME280;36278;47.952;21.714;2023-04-08T08:06:45;100844.88;;;6.80;87.76
43071;BME280;36278;47.952;21.714;2023-04-08T08:09:11;100846.03;;;6.57;86.62
43071;BME280;36278;47.952;21.714;2023-04-08T08:11:37;100852.88;;;6.61;87.76
43071;BME280;36278;47.952;21.714;2023-04-08T08:14:02;100853.09;;;6.56;89.19
43071;BME280;36278;47.952;21.714;2023-04-08T08:16:29;100855.44;;;6.45;86.82
43071;BME280;36278;47.952;21.714;2023-04-08T08:18:54;100851.63;;;6.51;85.35
43071;BME280;36278;47.952;21.714;2023-04-08T08:21:20;100856.88;;;6.51;85.61
43071;BME280;36278;47.952;21.714;2023-04-08T08:23:45;100855.97;;;6.86;84.94
43071;BME280;36278;47.952;21.714;2023-04-08T08:26:11;100856.72;;;6.88;83.17
43071;BME280;36278;47.952;21.714;2023-04-08T08:28:37;100858.44;;;6.72;85.82
43071;BME280;36278;47.952;21.714;2023-04-08T08:31:03;100857.19;;;6.79;85.01
43071;BME280;36278;47.952;21.714;2023-04-08T08:33:30;100862.44;;;6.96;84.95
43071;BME280;36278;47.952;21.714;2023-04-08T08:35:56;100860.31;;;7.20;84.24
43071;BME280;36278;47.952;21.714;2023-04-08T08:38:22;100858.13;;;7.28;84.83
43071;BME280;36278;47.952;21.714;2023-04-08T08:40:53;100857.97;;;7.14;82.93
43071;BME280;36278;47.952;21.714;2023-04-08T08:43:21;100861.06;;;7.22;86.52
43071;BME280;36278;47.952;21.714;2023-04-08T08:45:46;100861.91;;;7.23;85.13
43071;BME280;36278;47.952;21.714;2023-04-08T08:48:12;100859.78;;;7.14;84.65
43071;BME280;36278;47.952;21.714;2023-04-08T08:50:37;100863.50;;;7.43;83.09
43071;BME280;36278;47.952;21.714;2023-04-08T08:53:03;100857.72;;;7.36;80.45
43071;BME280;36278;47.952;21.714;2023-04-08T08:55:32;100860.53;;;7.16;82.16
43071;BME280;36278;47.952;21.714;2023-04-08T08:58:02;100865.19;;;7.44;79.23
43071;BME280;36278;47.952;21.714;2023-04-08T09:05:47;100863.06;;;8.13;79.21
43071;BME280;36278;47.952;21.714;2023-04-08T09:11:15;100872.78;;;7.97;77.39
43071;BME280;36278;47.952;21.714;2023-04-08T09:13:41;100870.97;;;8.29;75.30
43071;BME280;36278;47.952;21.714;2023-04-08T09:16:08;100868.75;;;8.37;76.25
43071;BME280;36278;47.952;21.714;2023-04-08T09:18:35;100870.47;;;8.38;75.74
43071;BME280;36278;47.952;21.714;2023-04-08T09:21:02;100870.28;;;8.57;75.67
43071;BME280;36278;47.952;21.714;2023-04-08T09:23:38;100872.31;;;8.82;72.92
43071;BME280;36278;47.952;21.714;2023-04-08T09:26:15;100871.16;;;8.72;73.75
43071;BME280;36278;47.952;21.714;2023-04-08T09:28:42;100864.63;;;8.63;72.60
43071;BME280;36278;47.952;21.714;2023-04-08T09:31:28;100869.94;;;8.78;72.55
43071;BME280;36278;47.952;21.714;2023-04-08T09:33:56;100876.22;;;8.61;75.33
43071;BME280;36278;47.952;21.714;2023-04-08T09:36:22;100858.38;;;8.19;74.41
43071;BME280;36278;47.952;21.714;2023-04-08T09:38:48;100879.13;;;8.56;75.46
43071;BME280;36278;47.952;21.714;2023-04-08T09:41:16;100878.78;;;8.47;74.42
43071;BME280;36278;47.952;21.714;2023-04-08T09:43:55;100871.69;;;8.63;74.06
43071;BME280;36278;47.952;21.714;2023-04-08T09:48:57;100870.13;;;8.29;73.76
43071;BME280;36278;47.952;21.714;2023-04-08T09:51:28;100862.28;;;8.43;73.83
43071;BME280;36278;47.952;21.714;2023-04-08T09:54:02;100865.63;;;8.61;73.54
43071;BME280;36278;47.952;21.714;2023-04-08T09:56:37;100858.66;;;8.90;72.60
43071;BME280;36278;47.952;21.714;2023-04-08T09:59:17;100849.09;;;8.87;71.13
43071;BME280;36278;47.952;21.714;2023-04-08T10:01:51;100863.47;;;8.97;70.53
43071;BME280;36278;47.952;21.714;2023-04-08T10:04:19;100861.56;;;8.99;70.97
43071;BME280;36278;47.952;21.714;2023-04-08T10:06:53;100861.50;;;9.15;70.45
43071;BME280;36278;47.952;21.714;2023-04-08T10:09:21;100863.63;;;8.94;72.17
43071;BME280;36278;47.952;21.714;2023-04-08T10:11:48;100861.94;;;8.93;70.00
43071;BME280;36278;47.952;21.714;2023-04-08T10:14:13;100873.91;;;8.55;73.19
43071;BME280;36278;47.952;21.714;2023-04-08T10:16:39;100874.28;;;8.49;73.22
43071;BME280;36278;47.952;21.714;2023-04-08T10:19:37;100880.69;;;8.13;74.64
43071;BME280;36278;47.952;21.714;2023-04-08T10:27:39;100865.69;;;8.29;74.24
43071;BME280;36278;47.952;21.714;2023-04-08T10:32:59;100863.03;;;8.75;70.71
43071;BME280;36278;47.952;21.714;2023-04-08T10:35:29;100856.25;;;8.85;71.50
43071;BME280;36278;47.952;21.714;2023-04-08T10:37:55;100862.97;;;8.91;72.71
43071;BME280;36278;47.952;21.714;2023-04-08T10:40:21;100862.56;;;8.68;73.92
43071;BME280;36278;47.952;21.714;2023-04-08T10:42:46;100875.56;;;8.57;74.77
43071;BME280;36278;47.952;21.714;2023-04-08T10:45:18;100871.41;;;8.37;75.64
43071;BME280;36278;47.952;21.714;2023-04-08T10:47:43;100863.91;;;8.30;75.67
43071;BME280;36278;47.952;21.714;2023-04-08T10:50:17;100872.34;;;8.36;74.46
43071;BME280;36278;47.952;21.714;2023-04-08T10:52:49;100872.19;;;8.39;73.91
43071;BME280;36278;47.952;21.714;2023-04-08T10:55:24;100871.22;;;8.56;73.02
43071;BME280;36278;47.952;21.714;2023-04-08T10:57:51;100869.81;;;8.65;72.64
43071;BME280;36278;47.952;21.714;2023-04-08T11:00:17;100863.19;;;8.88;71.70
43071;BME280;36278;47.952;21.714;2023-04-08T11:02:43;100864.78;;;8.90;70.86
43071;BME280;36278;47.952;21.714;2023-04-08T11:05:09;100853.28;;;9.06;70.39
43071;BME280;36278;47.952;21.714;2023-04-08T11:07:40;100857.44;;;9.24;71.26
43071;BME280;36278;47.952;21.714;2023-04-08T11:10:07;100858.88;;;9.30;69.24
43071;BME280;36278;47.952;21.714;2023-04-08T11:12:34;100859.72;;;9.30;70.17
43071;BME280;36278;47.952;21.714;2023-04-08T11:15:00;100862.53;;;9.13;70.20
43071;BME280;36278;47.952;21.714;2023-04-08T11:17:27;100857.25;;;9.13;71.58
43071;BME280;36278;47.952;21.714;2023-04-08T11:19:53;100858.75;;;9.17;69.58
43071;BME280;36278;47.952;21.714;2023-04-08T11:22:19;100862.34;;;9.16;70.03
43071;BME280;36278;47.952;21.714;2023-04-08T11:24:45;100858.84;;;9.01;69.61
43071;BME280;36278;47.952;21.714;2023-04-08T11:27:11;100859.69;;;9.02;69.82
43071;BME280;36278;47.952;21.714;2023-04-08T11:29:37;100853.84;;;9.25;69.32
43071;BME280;36278;47.952;21.714;2023-04-08T11:32:02;100841.19;;;9.30;69.74
43071;BME280;36278;47.952;21.714;2023-04-08T11:34:28;100852.44;;;9.34;68.83
43071;BME280;36278;47.952;21.714;2023-04-08T11:36:55;100843.63;;;9.62;66.78
43071;BME280;36278;47.952;21.714;2023-04-08T11:39:22;100847.59;;;9.54;66.74
43071;BME280;36278;47.952;21.714;2023-04-08T11:41:48;100851.16;;;9.68;65.59
43071;BME280;36278;47.952;21.714;2023-04-08T11:44:14;100848.44;;;9.55;66.32
43071;BME280;36278;47.952;21.714;2023-04-08T11:46:39;100845.22;;;9.50;66.08
43071;BME280;36278;47.952;21.714;2023-04-08T11:49:07;100852.22;;;9.65;66.46
43071;BME280;36278;47.952;21.714;2023-04-08T11:51:53;100850.25;;;9.40;68.89
43071;BME280;36278;47.952;21.714;2023-04-08T11:54:29;100846.56;;;9.57;66.08
43071;BME280;36278;47.952;21.714;2023-04-08T11:56:56;100850.63;;;9.48;66.42
43071;BME280;36278;47.952;21.714;2023-04-08T11:59:23;100851.47;;;9.49;65.63
43071;BME280;36278;47.952;21.714;2023-04-08T12:01:48;100847.34;;;9.31;65.82
43071;BME280;36278;47.952;21.714;2023-04-08T12:04:14;100844.75;;;9.43;66.35
43071;BME280;36278;47.952;21.714;2023-04-08T12:06:39;100847.56;;;9.69;65.47
43071;BME280;36278;47.952;21.714;2023-04-08T12:09:07;100844.13;;;9.95;64.17
43071;BME280;36278;47.952;21.714;2023-04-08T12:11:33;100838.47;;;10.14;62.59
43071;BME280;36278;47.952;21.714;2023-04-08T12:13:59;100838.19;;;10.19;63.35
43071;BME280;36278;47.952;21.714;2023-04-08T12:16:24;100840.72;;;10.20;63.75
43071;BME280;36278;47.952;21.714;2023-04-08T12:18:50;100830.81;;;10.09;63.45
43071;BME280;36278;47.952;21.714;2023-04-08T12:21:15;100828.38;;;10.06;64.61
43071;BME280;36278;47.952;21.714;2023-04-08T12:23:41;100834.19;;;9.84;64.79
43071;BME280;36278;47.952;21.714;2023-04-08T12:26:07;100823.97;;;9.51;65.97
43071;BME280;36278;47.952;21.714;2023-04-08T12:28:32;100838.09;;;9.38;66.00
43071;BME280;36278;47.952;21.714;2023-04-08T12:30:59;100839.56;;;9.42;67.11
43071;BME280;36278;47.952;21.714;2023-04-08T12:33:24;100842.31;;;9.40;67.44
43071;BME280;36278;47.952;21.714;2023-04-08T12:35:50;100836.66;;;9.32;67.64
43071;BME280;36278;47.952;21.714;2023-04-08T12:38:16;100842.50;;;9.09;67.52
43071;BME280;36278;47.952;21.714;2023-04-08T12:40:42;100831.47;;;8.88;67.90
43071;BME280;36278;47.952;21.714;2023-04-08T12:43:07;100847.50;;;8.99;67.81
43071;BME280;36278;47.952;21.714;2023-04-08T12:45:32;100838.63;;;9.00;68.39
43071;BME280;36278;47.952;21.714;2023-04-08T12:47:58;100840.72;;;9.09;67.52
43071;BME280;36278;47.952;21.714;2023-04-08T12:50:23;100837.34;;;9.21;66.94
43071;BME280;36278;47.952;21.714;2023-04-08T12:52:49;100839.41;;;9.31;67.25
43071;BME280;36278;47.952;21.714;2023-04-08T12:55:14;100836.72;;;9.59;65.49
43071;BME280;36278;47.952;21.714;2023-04-08T12:57:40;100831.84;;;9.53;65.66
43071;BME280;36278;47.952;21.714;2023-04-08T13:00:06;100833.00;;;9.76;65.84
43071;BME280;36278;47.952;21.714;2023-04-08T13:02:31;100834.41;;;10.08;65.67
43071;BME280;36278;47.952;21.714;2023-04-08T13:04:57;100836.09;;;10.24;64.75
43071;BME280;36278;47.952;21.714;2023-04-08T13:07:22;100831.91;;;10.47;63.71
43071;BME280;36278;47.952;21.714;2023-04-08T13:09:48;100836.44;;;10.32;62.72